Terminal Aerodrome Forecast
Issued by NWS

Home | Current Version | Previous Version | Text Only | Print | Product List | Glossary On
Versions: 1 2 3 4 5 6 7 8 9 10 11 12 13 14
000
FTUS46 KPDT 252320
TAFPSC
TAF
KPSC 252320Z 2600/2624 21009KT P6SM SCT070
     FM260300 21009KT P6SM VCSH BKN070 BKN120
     FM260600 18006KT P6SM BKN070 OVC120
     FM261200 21006KT P6SM SCT080 BKN150
     FM262100 26006KT P6SM SCT080 BKN150=

USA.gov is the U.S. government's official web portal to all federal, state and local government web resources and services.